CheckWX is a tool to help pilots better visualize weather data.  It is not intended as a substitute for an official pre-flight weather briefing.

03:16:35 UTC

FNKU METAR
Kuito Airport
Kuito, Angola
Current

12 hours ago

FNKU 261500Z 18008KT CAVOK 22/16 Q1020
Observed
May-26 @ 15:00 UTC
Wind
  • 180° at 8 KTS
Visibility
10,000+ meters
Flight Rules
VFR
Cloud Levels
  • Clear skies
Temperature
22°C / 72°F
Dewpoint
16°C / 61°F
Humidity
69%
Altimeter
30.12" Hg
Pressure
1019.92 hPa
Previous

13 hours ago

FNKU 261400Z 15008KT CAVOK 22/17 Q1020
Observed
May-26 @ 14:00 UTC
Wind
  • 150° at 8 KTS
Visibility
10,000+ meters
Flight Rules
VFR
Cloud Levels
  • Clear skies
Temperature
22°C / 72°F
Dewpoint
17°C / 63°F
Humidity
73%
Altimeter
30.12" Hg
Pressure
1019.92 hPa
Previous

14 hours ago

FNKU 261300Z 15010KT CAVOK 23/18 Q1020
Observed
May-26 @ 13:00 UTC
Wind
  • 150° at 10 KTS
Visibility
10,000+ meters
Flight Rules
VFR
Cloud Levels
  • Clear skies
Temperature
23°C / 73°F
Dewpoint
18°C / 64°F
Humidity
74%
Altimeter
30.12" Hg
Pressure
1019.92 hPa